Tropical Cyclones
[Index]
Main Index Home Page Stock Weather Photos Extreme Storms Discussion Storm News and Storm Chasing Reports Tropical Cyclones / Hurricanes / Typhoons Weather Data and Links Wild Fires / Bushfires Weather Observation Techniques Weather Picture Catalogue Tornado Pictures and Reports Stock Video Footage and DVDs for sale
Season 2004-2005 Tropical Cyclone TROP-DISTURBANCE-03 Track Map
Season 2004-2005 Summaries (Operational Data): [AU] [SIO] [SPAC] [SH]
<<- Previous TC | 2004-2005 Season | Next TC ->>

click for intensity scale information  Lat/long Grid: Show Hide

 Date Labels: Show Hide

Operational Tropical Cyclone Data

Name: TROP-DISTURBANCE-03
Number: 05SD

08 Feb 2005 18:00 UTC to 17 Feb 2005 12:00 UTC

    date/time    lat    long     hPa   cat  kts
2005-02-08 18   18.0    56.3    1003         20          
2005-02-09 00   18.1    56.2    1003         20          
2005-02-09 12   18.2    55.6    1003         20          
2005-02-10 00   18.3    54.5    1002         25          
2005-02-10 06   17.9    54.0    1001         25          
2005-02-10 12   18.0    53.4    1004         25          
2005-02-11 00   18.0    55.0    1004         25          
2005-02-11 06   18.4    55.5    1005         25          
2005-02-11 12   18.0    55.5    1005         25          
2005-02-11 18   18.3    56.1    1005         25          
2005-02-12 00   18.8    56.7    1000         25          
2005-02-12 06   18.5    57.0    1004         25          
2005-02-12 12   19.0    58.1    1003         25          
2005-02-13 00   19.5    59.5    1003         25          
2005-02-13 12   20.4    58.6    1003         25          
2005-02-14 00   21.2    57.7    1003         25          
2005-02-14 12   21.4    57.0    1003         25          
2005-02-15 00   21.9    55.8    1001         25          
2005-02-15 06   22.0    54.5    1001         25          
2005-02-15 12   22.3    53.7    1000         25          
2005-02-15 18   22.0    53.4    1000         25          
2005-02-16 00   22.3    53.0    1000         25          
2005-02-16 06   22.6    52.3    1002         25          
2005-02-16 12   22.9    51.7    1002         25          
2005-02-16 18   22.2    51.8    1003         20          
2005-02-17 00   21.5    51.5    1004         20          
2005-02-17 06   22.0    52.0    1004         20          
2005-02-17 12   22.0    52.1    1004         20          
Winds are 10-min average.

Tropical cyclone tracks developed by Michael Bath using operational warnings and advisories and Google Maps.


[Australian Severe Weather index] [Copyright Notice] [Email Contacts] [Search This Site] [Privacy Policy]
Document: tropical_cyclone_trop-disturbance-03.htm Updated: 28 May 2013